sensor_id;sensor_type;location;lat;lon;timestamp;P1;durP1;ratioP1;P2;durP2;ratioP2
71265;SDS011;59030;52.052;8.550;2023-07-20T00:02:19;1.60;;;1.50;;
71265;SDS011;59030;52.052;8.550;2023-07-20T00:04:48;2.57;;;1.40;;
71265;SDS011;59030;52.052;8.550;2023-07-20T00:07:15;1.50;;;1.40;;
71265;SDS011;59030;52.052;8.550;2023-07-20T00:09:43;1.23;;;1.13;;
71265;SDS011;59030;52.052;8.550;2023-07-20T00:12:11;1.70;;;1.60;;
71265;SDS011;59030;52.052;8.550;2023-07-20T00:14:38;1.57;;;1.47;;
71265;SDS011;59030;52.052;8.550;2023-07-20T00:17:06;1.60;;;1.50;;
71265;SDS011;59030;52.052;8.550;2023-07-20T00:19:33;1.60;;;1.50;;
71265;SDS011;59030;52.052;8.550;2023-07-20T00:22:01;1.50;;;1.40;;
71265;SDS011;59030;52.052;8.550;2023-07-20T00:24:30;3.87;;;1.60;;
71265;SDS011;59030;52.052;8.550;2023-07-20T00:26:57;1.53;;;1.43;;
71265;SDS011;59030;52.052;8.550;2023-07-20T00:29:24;2.90;;;1.80;;
71265;SDS011;59030;52.052;8.550;2023-07-20T00:31:51;1.87;;;1.77;;
71265;SDS011;59030;52.052;8.550;2023-07-20T00:34:19;4.00;;;2.00;;
71265;SDS011;59030;52.052;8.550;2023-07-20T00:36:46;3.93;;;2.20;;
71265;SDS011;59030;52.052;8.550;2023-07-20T00:39:15;2.53;;;1.70;;
71265;SDS011;59030;52.052;8.550;2023-07-20T00:41:42;2.47;;;2.20;;
71265;SDS011;59030;52.052;8.550;2023-07-20T00:44:09;2.63;;;2.13;;
71265;SDS011;59030;52.052;8.550;2023-07-20T00:46:36;3.43;;;2.30;;
71265;SDS011;59030;52.052;8.550;2023-07-20T00:49:03;3.27;;;2.10;;
71265;SDS011;59030;52.052;8.550;2023-07-20T00:51:32;3.30;;;2.30;;
71265;SDS011;59030;52.052;8.550;2023-07-20T00:53:59;2.80;;;2.50;;
71265;SDS011;59030;52.052;8.550;2023-07-20T00:56:27;3.43;;;2.40;;
71265;SDS011;59030;52.052;8.550;2023-07-20T00:58:54;2.60;;;2.40;;
71265;SDS011;59030;52.052;8.550;2023-07-20T01:01:22;3.73;;;2.57;;
71265;SDS011;59030;52.052;8.550;2023-07-20T01:03:49;3.00;;;2.70;;
71265;SDS011;59030;52.052;8.550;2023-07-20T01:06:19;2.77;;;2.50;;
71265;SDS011;59030;52.052;8.550;2023-07-20T01:08:49;3.27;;;2.70;;
71265;SDS011;59030;52.052;8.550;2023-07-20T01:11:17;5.00;;;2.73;;
71265;SDS011;59030;52.052;8.550;2023-07-20T01:13:45;3.77;;;2.93;;
71265;SDS011;59030;52.052;8.550;2023-07-20T01:16:12;5.23;;;2.90;;
71265;SDS011;59030;52.052;8.550;2023-07-20T01:18:39;3.83;;;2.97;;
71265;SDS011;59030;52.052;8.550;2023-07-20T01:21:08;3.40;;;3.10;;
71265;SDS011;59030;52.052;8.550;2023-07-20T01:23:46;2.80;;;2.60;;
71265;SDS011;59030;52.052;8.550;2023-07-20T01:26:22;3.30;;;3.00;;
71265;SDS011;59030;52.052;8.550;2023-07-20T01:28:56;3.43;;;2.83;;
71265;SDS011;59030;52.052;8.550;2023-07-20T01:31:23;5.93;;;3.40;;
71265;SDS011;59030;52.052;8.550;2023-07-20T01:33:52;3.93;;;2.80;;
71265;SDS011;59030;52.052;8.550;2023-07-20T01:36:20;4.17;;;3.10;;
71265;SDS011;59030;52.052;8.550;2023-07-20T01:38:48;3.70;;;2.90;;
71265;SDS011;59030;52.052;8.550;2023-07-20T01:41:16;3.53;;;3.20;;
71265;SDS011;59030;52.052;8.550;2023-07-20T01:43:44;3.53;;;3.23;;
71265;SDS011;59030;52.052;8.550;2023-07-20T01:46:11;3.53;;;3.23;;
71265;SDS011;59030;52.052;8.550;2023-07-20T01:48:38;4.70;;;3.20;;
71265;SDS011;59030;52.052;8.550;2023-07-20T01:51:05;6.13;;;3.33;;
71265;SDS011;59030;52.052;8.550;2023-07-20T01:53:32;4.00;;;3.50;;
71265;SDS011;59030;52.052;8.550;2023-07-20T01:56:00;3.37;;;3.03;;
71265;SDS011;59030;52.052;8.550;2023-07-20T01:58:27;3.60;;;3.10;;
71265;SDS011;59030;52.052;8.550;2023-07-20T02:00:54;3.10;;;2.80;;
71265;SDS011;59030;52.052;8.550;2023-07-20T02:03:21;3.40;;;3.10;;
71265;SDS011;59030;52.052;8.550;2023-07-20T02:05:49;3.80;;;3.40;;
71265;SDS011;59030;52.052;8.550;2023-07-20T02:08:17;4.10;;;3.40;;
71265;SDS011;59030;52.052;8.550;2023-07-20T02:10:46;4.80;;;3.30;;
71265;SDS011;59030;52.052;8.550;2023-07-20T02:13:14;5.80;;;3.60;;
71265;SDS011;59030;52.052;8.550;2023-07-20T02:15:41;4.67;;;3.63;;
71265;SDS011;59030;52.052;8.550;2023-07-20T02:18:09;5.27;;;3.37;;
71265;SDS011;59030;52.052;8.550;2023-07-20T02:20:36;5.40;;;3.97;;
71265;SDS011;59030;52.052;8.550;2023-07-20T02:23:03;5.03;;;3.80;;
71265;SDS011;59030;52.052;8.550;2023-07-20T02:25:33;5.23;;;3.77;;
71265;SDS011;59030;52.052;8.550;2023-07-20T02:28:01;5.47;;;3.90;;
71265;SDS011;59030;52.052;8.550;2023-07-20T02:30:28;4.83;;;3.60;;
71265;SDS011;59030;52.052;8.550;2023-07-20T02:32:55;4.03;;;3.50;;
71265;SDS011;59030;52.052;8.550;2023-07-20T02:35:27;4.23;;;3.53;;
71265;SDS011;59030;52.052;8.550;2023-07-20T02:37:54;4.63;;;4.13;;
71265;SDS011;59030;52.052;8.550;2023-07-20T02:40:21;4.53;;;4.00;;
71265;SDS011;59030;52.052;8.550;2023-07-20T02:42:48;6.50;;;4.07;;
71265;SDS011;59030;52.052;8.550;2023-07-20T02:45:16;4.77;;;4.10;;
71265;SDS011;59030;52.052;8.550;2023-07-20T02:47:45;6.23;;;4.63;;
71265;SDS011;59030;52.052;8.550;2023-07-20T02:50:12;4.87;;;4.30;;
71265;SDS011;59030;52.052;8.550;2023-07-20T02:52:40;5.93;;;4.53;;
71265;SDS011;59030;52.052;8.550;2023-07-20T02:55:08;4.43;;;4.00;;
71265;SDS011;59030;52.052;8.550;2023-07-20T02:57:35;5.53;;;4.30;;
71265;SDS011;59030;52.052;8.550;2023-07-20T03:00:02;5.47;;;4.37;;
71265;SDS011;59030;52.052;8.550;2023-07-20T03:02:31;5.60;;;4.43;;
71265;SDS011;59030;52.052;8.550;2023-07-20T03:04:58;6.00;;;4.33;;
71265;SDS011;59030;52.052;8.550;2023-07-20T03:07:27;4.87;;;4.20;;
71265;SDS011;59030;52.052;8.550;2023-07-20T03:09:54;4.43;;;3.90;;
71265;SDS011;59030;52.052;8.550;2023-07-20T03:12:23;5.30;;;4.40;;
71265;SDS011;59030;52.052;8.550;2023-07-20T03:14:51;5.00;;;4.07;;
71265;SDS011;59030;52.052;8.550;2023-07-20T03:17:20;6.20;;;4.30;;
71265;SDS011;59030;52.052;8.550;2023-07-20T03:19:47;6.37;;;4.10;;
71265;SDS011;59030;52.052;8.550;2023-07-20T03:22:14;4.97;;;4.10;;
71265;SDS011;59030;52.052;8.550;2023-07-20T03:24:41;4.90;;;4.13;;
71265;SDS011;59030;52.052;8.550;2023-07-20T03:27:09;4.33;;;3.83;;
71265;SDS011;59030;52.052;8.550;2023-07-20T03:29:36;8.40;;;4.10;;
71265;SDS011;59030;52.052;8.550;2023-07-20T03:32:04;6.53;;;4.07;;
71265;SDS011;59030;52.052;8.550;2023-07-20T03:34:31;4.90;;;3.90;;
71265;SDS011;59030;52.052;8.550;2023-07-20T03:36:58;4.33;;;3.63;;
71265;SDS011;59030;52.052;8.550;2023-07-20T03:39:26;2.70;;;2.50;;
71265;SDS011;59030;52.052;8.550;2023-07-20T03:41:53;3.67;;;2.60;;
71265;SDS011;59030;52.052;8.550;2023-07-20T03:44:20;2.53;;;2.27;;
71265;SDS011;59030;52.052;8.550;2023-07-20T03:46:47;3.90;;;2.30;;
71265;SDS011;59030;52.052;8.550;2023-07-20T03:49:15;2.90;;;2.13;;
71265;SDS011;59030;52.052;8.550;2023-07-20T03:51:42;2.53;;;2.30;;
71265;SDS011;59030;52.052;8.550;2023-07-20T03:54:09;2.30;;;2.10;;
71265;SDS011;59030;52.052;8.550;2023-07-20T03:56:36;2.17;;;1.93;;
71265;SDS011;59030;52.052;8.550;2023-07-20T03:59:04;2.30;;;1.97;;
71265;SDS011;59030;52.052;8.550;2023-07-20T04:01:31;2.40;;;2.17;;
71265;SDS011;59030;52.052;8.550;2023-07-20T04:04:01;2.67;;;2.00;;
71265;SDS011;59030;52.052;8.550;2023-07-20T04:06:28;2.53;;;1.90;;
71265;SDS011;59030;52.052;8.550;2023-07-20T04:08:55;1.97;;;1.77;;
71265;SDS011;59030;52.052;8.550;2023-07-20T04:11:22;2.20;;;1.97;;
71265;SDS011;59030;52.052;8.550;2023-07-20T04:13:49;2.33;;;1.80;;
71265;SDS011;59030;52.052;8.550;2023-07-20T04:16:16;2.63;;;1.77;;
71265;SDS011;59030;52.052;8.550;2023-07-20T04:18:46;1.87;;;1.77;;
71265;SDS011;59030;52.052;8.550;2023-07-20T04:21:13;1.87;;;1.77;;
71265;SDS011;59030;52.052;8.550;2023-07-20T04:23:40;2.00;;;1.73;;
71265;SDS011;59030;52.052;8.550;2023-07-20T04:26:07;2.10;;;1.90;;
71265;SDS011;59030;52.052;8.550;2023-07-20T04:28:35;2.73;;;1.83;;
71265;SDS011;59030;52.052;8.550;2023-07-20T04:31:11;1.67;;;1.57;;
71265;SDS011;59030;52.052;8.550;2023-07-20T04:33:38;2.07;;;1.90;;
71265;SDS011;59030;52.052;8.550;2023-07-20T04:36:06;1.90;;;1.80;;
71265;SDS011;59030;52.052;8.550;2023-07-20T04:38:33;1.77;;;1.67;;
71265;SDS011;59030;52.052;8.550;2023-07-20T04:41:01;2.03;;;1.87;;
71265;SDS011;59030;52.052;8.550;2023-07-20T04:43:28;1.90;;;1.80;;
71265;SDS011;59030;52.052;8.550;2023-07-20T04:45:56;2.47;;;2.00;;
71265;SDS011;59030;52.052;8.550;2023-07-20T04:48:24;2.23;;;2.00;;
71265;SDS011;59030;52.052;8.550;2023-07-20T04:50:51;2.10;;;1.90;;
71265;SDS011;59030;52.052;8.550;2023-07-20T04:53:18;2.40;;;2.10;;
71265;SDS011;59030;52.052;8.550;2023-07-20T04:55:49;2.50;;;2.30;;
71265;SDS011;59030;52.052;8.550;2023-07-20T04:58:20;2.43;;;2.23;;
71265;SDS011;59030;52.052;8.550;2023-07-20T05:00:48;2.50;;;2.17;;
71265;SDS011;59030;52.052;8.550;2023-07-20T05:03:15;4.87;;;2.47;;
71265;SDS011;59030;52.052;8.550;2023-07-20T05:05:43;2.07;;;1.93;;
71265;SDS011;59030;52.052;8.550;2023-07-20T05:08:10;2.43;;;2.23;;
71265;SDS011;59030;52.052;8.550;2023-07-20T05:10:37;2.97;;;2.37;;
71265;SDS011;59030;52.052;8.550;2023-07-20T05:13:04;2.23;;;2.03;;
71265;SDS011;59030;52.052;8.550;2023-07-20T05:15:33;2.30;;;2.10;;
71265;SDS011;59030;52.052;8.550;2023-07-20T05:18:00;2.50;;;1.93;;
71265;SDS011;59030;52.052;8.550;2023-07-20T05:20:27;3.17;;;2.07;;
71265;SDS011;59030;52.052;8.550;2023-07-20T05:22:55;2.00;;;1.90;;
71265;SDS011;59030;52.052;8.550;2023-07-20T05:25:22;2.40;;;1.90;;
71265;SDS011;59030;52.052;8.550;2023-07-20T05:27:49;3.40;;;2.17;;
71265;SDS011;59030;52.052;8.550;2023-07-20T05:30:17;1.93;;;1.80;;
71265;SDS011;59030;52.052;8.550;2023-07-20T05:32:44;1.90;;;1.80;;
71265;SDS011;59030;52.052;8.550;2023-07-20T05:35:13;1.77;;;1.67;;
71265;SDS011;59030;52.052;8.550;2023-07-20T05:37:42;4.07;;;1.70;;
71265;SDS011;59030;52.052;8.550;2023-07-20T05:40:10;1.53;;;1.43;;
71265;SDS011;59030;52.052;8.550;2023-07-20T05:42:38;1.50;;;1.40;;
71265;SDS011;59030;52.052;8.550;2023-07-20T05:45:06;1.57;;;1.47;;
71265;SDS011;59030;52.052;8.550;2023-07-20T05:47:33;1.23;;;1.17;;
71265;SDS011;59030;52.052;8.550;2023-07-20T05:50:01;1.73;;;1.53;;
71265;SDS011;59030;52.052;8.550;2023-07-20T05:52:29;1.50;;;1.40;;
71265;SDS011;59030;52.052;8.550;2023-07-20T05:54:56;2.07;;;1.60;;
71265;SDS011;59030;52.052;8.550;2023-07-20T05:57:24;2.07;;;1.50;;
71265;SDS011;59030;52.052;8.550;2023-07-20T05:59:51;1.73;;;1.50;;
71265;SDS011;59030;52.052;8.550;2023-07-20T06:02:18;1.60;;;1.50;;
71265;SDS011;59030;52.052;8.550;2023-07-20T06:04:45;1.70;;;1.60;;
71265;SDS011;59030;52.052;8.550;2023-07-20T06:07:13;1.97;;;1.57;;
71265;SDS011;59030;52.052;8.550;2023-07-20T06:09:40;2.60;;;2.20;;
71265;SDS011;59030;52.052;8.550;2023-07-20T06:12:08;1.90;;;1.60;;
71265;SDS011;59030;52.052;8.550;2023-07-20T06:14:36;1.80;;;1.70;;
71265;SDS011;59030;52.052;8.550;2023-07-20T06:17:04;1.90;;;1.70;;
71265;SDS011;59030;52.052;8.550;2023-07-20T06:19:32;3.73;;;1.80;;
71265;SDS011;59030;52.052;8.550;2023-07-20T06:21:59;1.60;;;1.50;;
71265;SDS011;59030;52.052;8.550;2023-07-20T06:24:26;1.40;;;1.30;;
71265;SDS011;59030;52.052;8.550;2023-07-20T06:26:53;1.43;;;1.20;;
71265;SDS011;59030;52.052;8.550;2023-07-20T06:29:21;1.60;;;1.50;;
71265;SDS011;59030;52.052;8.550;2023-07-20T06:31:48;1.40;;;1.30;;
71265;SDS011;59030;52.052;8.550;2023-07-20T06:34:15;1.77;;;1.37;;
71265;SDS011;59030;52.052;8.550;2023-07-20T06:36:42;1.30;;;1.20;;
71265;SDS011;59030;52.052;8.550;2023-07-20T06:39:10;1.63;;;1.30;;
71265;SDS011;59030;52.052;8.550;2023-07-20T06:41:37;1.80;;;1.43;;
71265;SDS011;59030;52.052;8.550;2023-07-20T06:44:04;1.50;;;1.40;;
71265;SDS011;59030;52.052;8.550;2023-07-20T06:46:32;1.50;;;1.40;;
71265;SDS011;59030;52.052;8.550;2023-07-20T06:48:59;1.07;;;1.07;;
71265;SDS011;59030;52.052;8.550;2023-07-20T06:51:26;1.30;;;1.20;;
71265;SDS011;59030;52.052;8.550;2023-07-20T06:53:54;1.70;;;1.60;;
71265;SDS011;59030;52.052;8.550;2023-07-20T06:56:21;1.27;;;1.17;;
71265;SDS011;59030;52.052;8.550;2023-07-20T06:58:48;1.57;;;1.10;;
71265;SDS011;59030;52.052;8.550;2023-07-20T07:01:15;1.30;;;1.20;;
71265;SDS011;59030;52.052;8.550;2023-07-20T07:03:43;0.87;;;0.87;;
71265;SDS011;59030;52.052;8.550;2023-07-20T07:06:10;0.97;;;0.97;;
71265;SDS011;59030;52.052;8.550;2023-07-20T07:08:37;0.93;;;0.93;;
71265;SDS011;59030;52.052;8.550;2023-07-20T07:11:05;1.30;;;1.20;;
71265;SDS011;59030;52.052;8.550;2023-07-20T07:13:32;1.40;;;1.07;;
71265;SDS011;59030;52.052;8.550;2023-07-20T07:15:59;0.97;;;0.93;;
71265;SDS011;59030;52.052;8.550;2023-07-20T07:18:26;1.40;;;0.90;;
71265;SDS011;59030;52.052;8.550;2023-07-20T07:20:54;0.80;;;0.80;;
71265;SDS011;59030;52.052;8.550;2023-07-20T07:23:21;1.17;;;1.00;;
71265;SDS011;59030;52.052;8.550;2023-07-20T07:25:48;1.13;;;1.03;;
71265;SDS011;59030;52.052;8.550;2023-07-20T07:28:15;2.73;;;1.10;;
71265;SDS011;59030;52.052;8.550;2023-07-20T07:30:43;0.93;;;0.80;;
71265;SDS011;59030;52.052;8.550;2023-07-20T07:33:10;1.10;;;1.10;;
71265;SDS011;59030;52.052;8.550;2023-07-20T07:35:38;1.90;;;1.23;;
71265;SDS011;59030;52.052;8.550;2023-07-20T07:38:05;0.87;;;0.87;;
71265;SDS011;59030;52.052;8.550;2023-07-20T07:40:33;0.90;;;0.90;;
71265;SDS011;59030;52.052;8.550;2023-07-20T07:43:00;0.77;;;0.77;;
71265;SDS011;59030;52.052;8.550;2023-07-20T07:45:27;1.43;;;0.97;;
71265;SDS011;59030;52.052;8.550;2023-07-20T07:47:54;0.80;;;0.80;;
71265;SDS011;59030;52.052;8.550;2023-07-20T07:50:22;0.70;;;0.70;;
71265;SDS011;59030;52.052;8.550;2023-07-20T07:52:49;0.97;;;0.93;;
71265;SDS011;59030;52.052;8.550;2023-07-20T07:55:16;0.93;;;0.93;;
71265;SDS011;59030;52.052;8.550;2023-07-20T07:57:44;1.17;;;1.07;;
71265;SDS011;59030;52.052;8.550;2023-07-20T08:00:14;1.10;;;1.00;;
71265;SDS011;59030;52.052;8.550;2023-07-20T08:02:43;1.73;;;0.97;;
71265;SDS011;59030;52.052;8.550;2023-07-20T08:05:10;2.50;;;1.07;;
71265;SDS011;59030;52.052;8.550;2023-07-20T08:07:38;0.83;;;0.83;;
71265;SDS011;59030;52.052;8.550;2023-07-20T08:10:07;0.90;;;0.90;;
71265;SDS011;59030;52.052;8.550;2023-07-20T08:12:34;1.40;;;0.90;;
71265;SDS011;59030;52.052;8.550;2023-07-20T08:15:02;0.90;;;0.90;;
71265;SDS011;59030;52.052;8.550;2023-07-20T08:17:29;0.97;;;0.87;;
71265;SDS011;59030;52.052;8.550;2023-07-20T08:19:57;1.03;;;1.00;;
71265;SDS011;59030;52.052;8.550;2023-07-20T08:22:24;1.07;;;0.90;;
71265;SDS011;59030;52.052;8.550;2023-07-20T08:24:52;0.80;;;0.80;;
71265;SDS011;59030;52.052;8.550;2023-07-20T08:27:19;0.93;;;0.83;;
71265;SDS011;59030;52.052;8.550;2023-07-20T08:29:46;0.63;;;0.63;;
71265;SDS011;59030;52.052;8.550;2023-07-20T08:32:14;1.00;;;0.93;;
71265;SDS011;59030;52.052;8.550;2023-07-20T08:34:42;1.03;;;0.90;;
71265;SDS011;59030;52.052;8.550;2023-07-20T08:37:09;1.63;;;0.80;;
71265;SDS011;59030;52.052;8.550;2023-07-20T08:39:36;0.80;;;0.80;;
71265;SDS011;59030;52.052;8.550;2023-07-20T08:42:04;0.80;;;0.70;;
71265;SDS011;59030;52.052;8.550;2023-07-20T08:44:32;0.90;;;0.90;;
71265;SDS011;59030;52.052;8.550;2023-07-20T08:47:00;0.80;;;0.80;;
71265;SDS011;59030;52.052;8.550;2023-07-20T08:49:28;0.60;;;0.60;;
71265;SDS011;59030;52.052;8.550;2023-07-20T08:51:57;1.80;;;0.90;;
71265;SDS011;59030;52.052;8.550;2023-07-20T08:54:26;1.20;;;0.50;;
71265;SDS011;59030;52.052;8.550;2023-07-20T08:56:56;0.60;;;0.60;;
71265;SDS011;59030;52.052;8.550;2023-07-20T08:59:24;0.60;;;0.60;;
71265;SDS011;59030;52.052;8.550;2023-07-20T09:01:52;0.60;;;0.60;;
71265;SDS011;59030;52.052;8.550;2023-07-20T09:04:20;0.80;;;0.80;;
71265;SDS011;59030;52.052;8.550;2023-07-20T09:06:48;2.00;;;1.00;;
71265;SDS011;59030;52.052;8.550;2023-07-20T09:09:15;0.50;;;0.50;;
71265;SDS011;59030;52.052;8.550;2023-07-20T09:11:43;0.80;;;0.80;;
71265;SDS011;59030;52.052;8.550;2023-07-20T09:14:10;0.50;;;0.50;;
71265;SDS011;59030;52.052;8.550;2023-07-20T09:16:47;0.67;;;0.60;;
71265;SDS011;59030;52.052;8.550;2023-07-20T09:19:15;0.63;;;0.63;;
71265;SDS011;59030;52.052;8.550;2023-07-20T09:21:44;0.97;;;0.83;;
71265;SDS011;59030;52.052;8.550;2023-07-20T09:24:13;0.57;;;0.57;;
71265;SDS011;59030;52.052;8.550;2023-07-20T09:26:43;0.70;;;0.70;;
71265;SDS011;59030;52.052;8.550;2023-07-20T09:29:11;0.97;;;0.90;;
71265;SDS011;59030;52.052;8.550;2023-07-20T09:31:38;0.73;;;0.73;;
71265;SDS011;59030;52.052;8.550;2023-07-20T09:34:06;1.33;;;0.70;;
71265;SDS011;59030;52.052;8.550;2023-07-20T09:36:34;0.80;;;0.70;;
71265;SDS011;59030;52.052;8.550;2023-07-20T09:39:03;0.87;;;0.87;;
71265;SDS011;59030;52.052;8.550;2023-07-20T09:41:30;0.90;;;0.83;;
71265;SDS011;59030;52.052;8.550;2023-07-20T09:43:59;0.80;;;0.80;;
71265;SDS011;59030;52.052;8.550;2023-07-20T09:46:40;0.70;;;0.70;;
71265;SDS011;59030;52.052;8.550;2023-07-20T09:48:56;0.70;;;0.70;;
71265;SDS011;59030;52.052;8.550;2023-07-20T09:51:23;0.70;;;0.70;;
71265;SDS011;59030;52.052;8.550;2023-07-20T09:53:51;0.80;;;0.80;;
71265;SDS011;59030;52.052;8.550;2023-07-20T09:56:19;0.70;;;0.70;;
71265;SDS011;59030;52.052;8.550;2023-07-20T09:58:48;0.50;;;0.50;;
71265;SDS011;59030;52.052;8.550;2023-07-20T10:01:15;0.70;;;0.70;;
71265;SDS011;59030;52.052;8.550;2023-07-20T10:03:44;1.57;;;0.60;;
71265;SDS011;59030;52.052;8.550;2023-07-20T10:06:13;0.50;;;0.50;;
71265;SDS011;59030;52.052;8.550;2023-07-20T10:08:41;0.50;;;0.50;;
71265;SDS011;59030;52.052;8.550;2023-07-20T10:11:08;0.73;;;0.73;;
71265;SDS011;59030;52.052;8.550;2023-07-20T10:13:36;0.87;;;0.60;;
71265;SDS011;59030;52.052;8.550;2023-07-20T10:16:07;0.50;;;0.50;;
71265;SDS011;59030;52.052;8.550;2023-07-20T10:18:35;0.60;;;0.60;;
71265;SDS011;59030;52.052;8.550;2023-07-20T10:21:03;0.67;;;0.67;;
71265;SDS011;59030;52.052;8.550;2023-07-20T10:23:31;0.50;;;0.50;;
71265;SDS011;59030;52.052;8.550;2023-07-20T10:26:00;0.40;;;0.40;;
71265;SDS011;59030;52.052;8.550;2023-07-20T10:28:28;0.50;;;0.50;;
71265;SDS011;59030;52.052;8.550;2023-07-20T10:30:55;0.57;;;0.57;;
71265;SDS011;59030;52.052;8.550;2023-07-20T10:33:23;0.60;;;0.60;;
71265;SDS011;59030;52.052;8.550;2023-07-20T10:35:51;0.53;;;0.53;;
71265;SDS011;59030;52.052;8.550;2023-07-20T10:38:19;0.50;;;0.50;;
71265;SDS011;59030;52.052;8.550;2023-07-20T10:40:54;0.70;;;0.70;;
71265;SDS011;59030;52.052;8.550;2023-07-20T10:43:21;0.70;;;0.70;;
71265;SDS011;59030;52.052;8.550;2023-07-20T10:45:49;0.60;;;0.60;;
71265;SDS011;59030;52.052;8.550;2023-07-20T10:48:16;0.83;;;0.63;;
71265;SDS011;59030;52.052;8.550;2023-07-20T10:50:45;0.67;;;0.67;;
71265;SDS011;59030;52.052;8.550;2023-07-20T10:53:14;0.80;;;0.80;;
71265;SDS011;59030;52.052;8.550;2023-07-20T10:55:42;0.83;;;0.80;;
71265;SDS011;59030;52.052;8.550;2023-07-20T10:58:12;0.80;;;0.80;;
71265;SDS011;59030;52.052;8.550;2023-07-20T11:00:57;1.07;;;1.00;;
71265;SDS011;59030;52.052;8.550;2023-07-20T11:03:29;0.70;;;0.70;;
71265;SDS011;59030;52.052;8.550;2023-07-20T11:05:57;1.00;;;1.00;;
71265;SDS011;59030;52.052;8.550;2023-07-20T11:08:40;0.97;;;0.97;;
71265;SDS011;59030;52.052;8.550;2023-07-20T11:14:03;1.10;;;1.00;;
71265;SDS011;59030;52.052;8.550;2023-07-20T11:16:34;0.90;;;0.90;;
71265;SDS011;59030;52.052;8.550;2023-07-20T11:19:02;1.00;;;1.00;;
71265;SDS011;59030;52.052;8.550;2023-07-20T11:21:29;1.10;;;1.10;;
71265;SDS011;59030;52.052;8.550;2023-07-20T11:23:57;0.87;;;0.87;;
71265;SDS011;59030;52.052;8.550;2023-07-20T11:26:24;0.80;;;0.80;;
71265;SDS011;59030;52.052;8.550;2023-07-20T11:28:51;1.03;;;1.03;;
71265;SDS011;59030;52.052;8.550;2023-07-20T11:31:19;0.90;;;0.90;;
71265;SDS011;59030;52.052;8.550;2023-07-20T11:33:46;1.07;;;1.07;;
71265;SDS011;59030;52.052;8.550;2023-07-20T11:36:13;0.93;;;0.90;;
71265;SDS011;59030;52.052;8.550;2023-07-20T11:38:43;0.90;;;0.90;;
71265;SDS011;59030;52.052;8.550;2023-07-20T11:41:13;1.10;;;1.10;;
71265;SDS011;59030;52.052;8.550;2023-07-20T11:43:41;1.30;;;1.20;;
71265;SDS011;59030;52.052;8.550;2023-07-20T11:46:08;1.10;;;1.10;;
71265;SDS011;59030;52.052;8.550;2023-07-20T11:48:36;2.50;;;1.47;;
71265;SDS011;59030;52.052;8.550;2023-07-20T11:51:03;1.50;;;1.40;;
71265;SDS011;59030;52.052;8.550;2023-07-20T11:53:31;1.60;;;1.50;;
71265;SDS011;59030;52.052;8.550;2023-07-20T11:55:59;1.30;;;1.30;;
71265;SDS011;59030;52.052;8.550;2023-07-20T11:58:27;1.50;;;1.40;;
71265;SDS011;59030;52.052;8.550;2023-07-20T12:00:55;1.50;;;1.40;;
71265;SDS011;59030;52.052;8.550;2023-07-20T12:03:23;1.57;;;1.47;;
71265;SDS011;59030;52.052;8.550;2023-07-20T12:05:50;1.47;;;1.37;;
71265;SDS011;59030;52.052;8.550;2023-07-20T12:08:18;1.53;;;1.43;;
71265;SDS011;59030;52.052;8.550;2023-07-20T12:10:45;1.60;;;1.50;;
71265;SDS011;59030;52.052;8.550;2023-07-20T12:13:12;1.67;;;1.57;;
71265;SDS011;59030;52.052;8.550;2023-07-20T12:15:40;1.60;;;1.50;;
71265;SDS011;59030;52.052;8.550;2023-07-20T12:18:11;1.60;;;1.50;;
71265;SDS011;59030;52.052;8.550;2023-07-20T12:20:58;1.70;;;1.60;;
71265;SDS011;59030;52.052;8.550;2023-07-20T12:23:24;1.33;;;1.30;;
71265;SDS011;59030;52.052;8.550;2023-07-20T12:25:52;1.80;;;1.70;;
71265;SDS011;59030;52.052;8.550;2023-07-20T12:28:23;1.40;;;1.40;;
71265;SDS011;59030;52.052;8.550;2023-07-20T12:30:52;1.70;;;1.60;;
71265;SDS011;59030;52.052;8.550;2023-07-20T12:33:23;1.70;;;1.60;;
71265;SDS011;59030;52.052;8.550;2023-07-20T12:35:51;1.27;;;1.27;;
71265;SDS011;59030;52.052;8.550;2023-07-20T12:38:24;1.30;;;1.30;;
71265;SDS011;59030;52.052;8.550;2023-07-20T12:40:59;1.50;;;1.40;;
71265;SDS011;59030;52.052;8.550;2023-07-20T12:43:32;1.20;;;1.20;;
71265;SDS011;59030;52.052;8.550;2023-07-20T12:46:00;1.37;;;1.27;;
71265;SDS011;59030;52.052;8.550;2023-07-20T12:48:31;1.20;;;1.20;;
71265;SDS011;59030;52.052;8.550;2023-07-20T12:50:59;0.90;;;0.90;;
71265;SDS011;59030;52.052;8.550;2023-07-20T12:53:27;1.00;;;1.00;;
71265;SDS011;59030;52.052;8.550;2023-07-20T12:55:55;1.20;;;1.20;;
71265;SDS011;59030;52.052;8.550;2023-07-20T12:58:23;1.23;;;1.20;;
71265;SDS011;59030;52.052;8.550;2023-07-20T13:00:51;1.00;;;1.00;;
71265;SDS011;59030;52.052;8.550;2023-07-20T13:03:19;1.07;;;1.07;;
71265;SDS011;59030;52.052;8.550;2023-07-20T13:05:46;1.00;;;1.00;;
71265;SDS011;59030;52.052;8.550;2023-07-20T13:08:14;0.90;;;0.90;;
71265;SDS011;59030;52.052;8.550;2023-07-20T13:10:42;1.10;;;1.10;;
71265;SDS011;59030;52.052;8.550;2023-07-20T13:13:10;0.90;;;0.90;;
71265;SDS011;59030;52.052;8.550;2023-07-20T13:15:41;0.90;;;0.90;;
71265;SDS011;59030;52.052;8.550;2023-07-20T13:18:09;0.93;;;0.93;;
71265;SDS011;59030;52.052;8.550;2023-07-20T13:20:36;0.60;;;0.60;;
71265;SDS011;59030;52.052;8.550;2023-07-20T13:23:03;0.80;;;0.80;;
71265;SDS011;59030;52.052;8.550;2023-07-20T13:25:31;1.00;;;1.00;;
71265;SDS011;59030;52.052;8.550;2023-07-20T13:27:58;0.50;;;0.50;;
71265;SDS011;59030;52.052;8.550;2023-07-20T13:30:25;0.80;;;0.80;;
71265;SDS011;59030;52.052;8.550;2023-07-20T13:32:52;0.70;;;0.70;;
71265;SDS011;59030;52.052;8.550;2023-07-20T13:35:20;0.70;;;0.70;;
71265;SDS011;59030;52.052;8.550;2023-07-20T13:37:47;0.93;;;0.93;;
71265;SDS011;59030;52.052;8.550;2023-07-20T13:40:15;0.80;;;0.80;;
71265;SDS011;59030;52.052;8.550;2023-07-20T13:42:44;0.90;;;0.90;;
71265;SDS011;59030;52.052;8.550;2023-07-20T13:45:12;0.90;;;0.90;;
71265;SDS011;59030;52.052;8.550;2023-07-20T13:47:39;0.80;;;0.80;;
71265;SDS011;59030;52.052;8.550;2023-07-20T13:50:07;0.60;;;0.60;;
71265;SDS011;59030;52.052;8.550;2023-07-20T13:52:34;0.60;;;0.60;;
71265;SDS011;59030;52.052;8.550;2023-07-20T13:55:03;0.67;;;0.50;;
71265;SDS011;59030;52.052;8.550;2023-07-20T13:57:31;0.50;;;0.50;;
71265;SDS011;59030;52.052;8.550;2023-07-20T13:59:58;0.63;;;0.60;;
71265;SDS011;59030;52.052;8.550;2023-07-20T14:02:27;0.50;;;0.50;;
71265;SDS011;59030;52.052;8.550;2023-07-20T14:04:54;0.80;;;0.80;;
71265;SDS011;59030;52.052;8.550;2023-07-20T14:07:22;0.60;;;0.60;;
71265;SDS011;59030;52.052;8.550;2023-07-20T14:09:49;0.70;;;0.70;;
71265;SDS011;59030;52.052;8.550;2023-07-20T14:12:16;0.60;;;0.60;;
71265;SDS011;59030;52.052;8.550;2023-07-20T14:14:44;0.70;;;0.70;;
71265;SDS011;59030;52.052;8.550;2023-07-20T14:17:11;0.70;;;0.70;;
71265;SDS011;59030;52.052;8.550;2023-07-20T14:19:39;0.77;;;0.77;;
71265;SDS011;59030;52.052;8.550;2023-07-20T14:22:06;1.03;;;0.77;;
71265;SDS011;59030;52.052;8.550;2023-07-20T14:24:33;0.50;;;0.50;;
71265;SDS011;59030;52.052;8.550;2023-07-20T14:27:01;0.60;;;0.60;;
71265;SDS011;59030;52.052;8.550;2023-07-20T14:29:28;0.60;;;0.60;;
71265;SDS011;59030;52.052;8.550;2023-07-20T14:31:58;1.17;;;0.60;;
71265;SDS011;59030;52.052;8.550;2023-07-20T14:34:25;0.90;;;0.77;;
71265;SDS011;59030;52.052;8.550;2023-07-20T14:36:52;1.33;;;0.50;;
71265;SDS011;59030;52.052;8.550;2023-07-20T14:39:20;0.60;;;0.60;;
71265;SDS011;59030;52.052;8.550;2023-07-20T14:41:48;0.70;;;0.70;;
71265;SDS011;59030;52.052;8.550;2023-07-20T14:44:16;0.60;;;0.60;;
71265;SDS011;59030;52.052;8.550;2023-07-20T14:46:43;0.90;;;0.70;;
71265;SDS011;59030;52.052;8.550;2023-07-20T14:49:10;1.80;;;0.60;;
71265;SDS011;59030;52.052;8.550;2023-07-20T14:51:38;0.70;;;0.70;;
71265;SDS011;59030;52.052;8.550;2023-07-20T14:54:06;0.80;;;0.80;;
71265;SDS011;59030;52.052;8.550;2023-07-20T14:56:34;0.63;;;0.63;;